KGZH

Evergreen Regional / Middleton Field Airport

Evergreen, Alabama, USA
METAR KGZH 210653Z AUTO 09003KT 10SM CLR 21/19 A3006 RMK AO2 SLP175 T02110189 $
Observed Flight Rules
May-21 @ 06:53 UTC (27 minutes ago) Visual Flight Rules
Wind Visibility Clouds
90° at 3 knots 10 miles
  • Clear skies
Temperatures Readings
Current 21°C / 70°F
Dewpoint 19°C / 66°F
Humidity 88%
Altimeter 30.06" Hg
Pressure 1017.5 hPa
Elevation 78
METAR KGZH 210653Z AUTO 09003KT 10SM CLR 21/19 A3006 RMK AO2 SLP175 T02110189 $
Observed Flight Rules
May-21 @ 06:53 UTC
(27 minutes ago)
VFR
Wind Visibility
90° at 3 knots 10 miles
Clouds
  • Clear skies
Temperature Dewpoint
21°C / 70°F 19°C / 66°F
Humidity Altimeter Pressure
88% 30.06" Hg 1017.5 hPa